sensor_id;sensor_type;location;lat;lon;timestamp;temperature;humidity
3713;DHT22;1872;51.406;6.856;2023-10-13T00:01:24;17.20;99.90
3713;DHT22;1872;51.406;6.856;2023-10-13T00:03:50;17.20;99.90
3713;DHT22;1872;51.406;6.856;2023-10-13T00:06:19;17.20;99.90
3713;DHT22;1872;51.406;6.856;2023-10-13T00:08:45;17.20;99.90
3713;DHT22;1872;51.406;6.856;2023-10-13T00:11:15;17.20;99.90
3713;DHT22;1872;51.406;6.856;2023-10-13T00:13:41;17.20;99.90
3713;DHT22;1872;51.406;6.856;2023-10-13T00:16:23;17.20;99.90
3713;DHT22;1872;51.406;6.856;2023-10-13T00:18:53;17.20;99.90
3713;DHT22;1872;51.406;6.856;2023-10-13T00:21:23;17.20;99.90
3713;DHT22;1872;51.406;6.856;2023-10-13T00:23:59;17.20;99.90
3713;DHT22;1872;51.406;6.856;2023-10-13T00:26:27;17.20;99.90
3713;DHT22;1872;51.406;6.856;2023-10-13T00:28:55;17.20;99.90
3713;DHT22;1872;51.406;6.856;2023-10-13T00:31:46;17.20;99.90
3713;DHT22;1872;51.406;6.856;2023-10-13T00:34:14;17.20;99.90
3713;DHT22;1872;51.406;6.856;2023-10-13T00:36:44;17.30;99.90
3713;DHT22;1872;51.406;6.856;2023-10-13T00:39:14;17.30;99.90
3713;DHT22;1872;51.406;6.856;2023-10-13T00:41:44;17.30;99.90
3713;DHT22;1872;51.406;6.856;2023-10-13T00:44:18;17.30;99.90
3713;DHT22;1872;51.406;6.856;2023-10-13T00:46:51;17.30;99.90
3713;DHT22;1872;51.406;6.856;2023-10-13T00:49:21;17.30;99.90
3713;DHT22;1872;51.406;6.856;2023-10-13T00:51:49;17.30;99.90
3713;DHT22;1872;51.406;6.856;2023-10-13T00:54:15;17.30;99.90
3713;DHT22;1872;51.406;6.856;2023-10-13T00:56:46;17.30;99.90
3713;DHT22;1872;51.406;6.856;2023-10-13T00:59:23;17.30;99.90
3713;DHT22;1872;51.406;6.856;2023-10-13T01:01:51;17.30;99.90
3713;DHT22;1872;51.406;6.856;2023-10-13T01:04:21;17.30;99.90
3713;DHT22;1872;51.406;6.856;2023-10-13T01:06:48;17.30;99.90
3713;DHT22;1872;51.406;6.856;2023-10-13T01:09:14;17.30;99.90
3713;DHT22;1872;51.406;6.856;2023-10-13T01:11:49;17.30;99.90
3713;DHT22;1872;51.406;6.856;2023-10-13T01:14:19;17.30;99.90
3713;DHT22;1872;51.406;6.856;2023-10-13T01:16:46;17.40;99.90
3713;DHT22;1872;51.406;6.856;2023-10-13T01:19:13;17.30;99.90
3713;DHT22;1872;51.406;6.856;2023-10-13T01:21:39;17.30;99.90
3713;DHT22;1872;51.406;6.856;2023-10-13T01:24:13;17.30;99.90
3713;DHT22;1872;51.406;6.856;2023-10-13T01:26:40;17.40;99.90
3713;DHT22;1872;51.406;6.856;2023-10-13T01:29:06;17.30;99.90
3713;DHT22;1872;51.406;6.856;2023-10-13T01:31:42;17.30;99.90
3713;DHT22;1872;51.406;6.856;2023-10-13T01:34:18;17.30;99.90
3713;DHT22;1872;51.406;6.856;2023-10-13T01:36:54;17.30;99.90
3713;DHT22;1872;51.406;6.856;2023-10-13T01:39:22;17.30;99.90
3713;DHT22;1872;51.406;6.856;2023-10-13T01:41:57;17.30;99.90
3713;DHT22;1872;51.406;6.856;2023-10-13T01:44:24;17.30;99.90
3713;DHT22;1872;51.406;6.856;2023-10-13T01:46:49;17.20;99.90
3713;DHT22;1872;51.406;6.856;2023-10-13T01:49:16;17.20;99.90
3713;DHT22;1872;51.406;6.856;2023-10-13T01:51:42;17.30;99.90
3713;DHT22;1872;51.406;6.856;2023-10-13T01:54:08;17.30;99.90
3713;DHT22;1872;51.406;6.856;2023-10-13T01:56:38;17.20;99.90
3713;DHT22;1872;51.406;6.856;2023-10-13T01:59:10;17.20;99.90
3713;DHT22;1872;51.406;6.856;2023-10-13T02:01:35;17.30;99.90
3713;DHT22;1872;51.406;6.856;2023-10-13T02:04:01;17.20;99.90
3713;DHT22;1872;51.406;6.856;2023-10-13T02:06:31;17.20;99.90
3713;DHT22;1872;51.406;6.856;2023-10-13T02:09:05;17.30;99.90
3713;DHT22;1872;51.406;6.856;2023-10-13T02:11:38;17.20;99.90
3713;DHT22;1872;51.406;6.856;2023-10-13T02:14:04;17.20;99.90
3713;DHT22;1872;51.406;6.856;2023-10-13T02:16:29;17.20;99.90
3713;DHT22;1872;51.406;6.856;2023-10-13T02:18:57;17.20;99.90
3713;DHT22;1872;51.406;6.856;2023-10-13T02:21:23;17.20;99.90
3713;DHT22;1872;51.406;6.856;2023-10-13T02:23:57;17.20;99.90
3713;DHT22;1872;51.406;6.856;2023-10-13T02:26:32;17.20;99.90
3713;DHT22;1872;51.406;6.856;2023-10-13T02:29:04;17.20;99.90
3713;DHT22;1872;51.406;6.856;2023-10-13T02:31:35;17.20;99.90
3713;DHT22;1872;51.406;6.856;2023-10-13T02:34:01;17.20;99.90
3713;DHT22;1872;51.406;6.856;2023-10-13T02:36:32;17.20;99.90
3713;DHT22;1872;51.406;6.856;2023-10-13T02:39:12;17.20;99.90
3713;DHT22;1872;51.406;6.856;2023-10-13T02:41:39;17.20;99.90
3713;DHT22;1872;51.406;6.856;2023-10-13T02:44:07;17.30;99.90
3713;DHT22;1872;51.406;6.856;2023-10-13T02:46:36;17.30;99.90
3713;DHT22;1872;51.406;6.856;2023-10-13T02:49:06;17.30;99.90
3713;DHT22;1872;51.406;6.856;2023-10-13T02:51:37;17.30;99.90
3713;DHT22;1872;51.406;6.856;2023-10-13T02:54:05;17.30;99.90
3713;DHT22;1872;51.406;6.856;2023-10-13T02:56:44;17.30;99.90
3713;DHT22;1872;51.406;6.856;2023-10-13T02:59:18;17.30;99.90
3713;DHT22;1872;51.406;6.856;2023-10-13T03:02:02;17.30;99.90
3713;DHT22;1872;51.406;6.856;2023-10-13T03:04:47;17.20;99.90
3713;DHT22;1872;51.406;6.856;2023-10-13T03:07:13;17.20;99.90
3713;DHT22;1872;51.406;6.856;2023-10-13T03:09:48;17.30;99.90
3713;DHT22;1872;51.406;6.856;2023-10-13T03:12:18;17.20;99.90
3713;DHT22;1872;51.406;6.856;2023-10-13T03:14:44;17.20;99.90
3713;DHT22;1872;51.406;6.856;2023-10-13T03:17:13;17.20;99.90
3713;DHT22;1872;51.406;6.856;2023-10-13T03:19:45;17.20;99.90
3713;DHT22;1872;51.406;6.856;2023-10-13T03:22:17;17.20;99.90
3713;DHT22;1872;51.406;6.856;2023-10-13T03:24:46;17.20;99.90
3713;DHT22;1872;51.406;6.856;2023-10-13T03:27:19;17.20;99.90
3713;DHT22;1872;51.406;6.856;2023-10-13T03:29:50;17.20;99.90
3713;DHT22;1872;51.406;6.856;2023-10-13T03:32:22;17.20;99.90
3713;DHT22;1872;51.406;6.856;2023-10-13T03:34:54;17.20;99.90
3713;DHT22;1872;51.406;6.856;2023-10-13T03:37:37;17.20;99.90
3713;DHT22;1872;51.406;6.856;2023-10-13T03:40:04;17.20;99.90
3713;DHT22;1872;51.406;6.856;2023-10-13T03:43:09;17.20;99.90
3713;DHT22;1872;51.406;6.856;2023-10-13T03:45:37;17.20;99.90
3713;DHT22;1872;51.406;6.856;2023-10-13T03:48:14;17.20;99.90
3713;DHT22;1872;51.406;6.856;2023-10-13T03:51:02;17.20;99.90
3713;DHT22;1872;51.406;6.856;2023-10-13T03:53:41;17.20;99.90
3713;DHT22;1872;51.406;6.856;2023-10-13T03:58:55;17.20;99.90
3713;DHT22;1872;51.406;6.856;2023-10-13T04:01:29;17.20;99.90
3713;DHT22;1872;51.406;6.856;2023-10-13T04:04:17;17.30;99.90
3713;DHT22;1872;51.406;6.856;2023-10-13T04:07:06;17.20;99.90
3713;DHT22;1872;51.406;6.856;2023-10-13T04:12:56;17.20;99.90
3713;DHT22;1872;51.406;6.856;2023-10-13T04:15:43;17.20;99.90
3713;DHT22;1872;51.406;6.856;2023-10-13T04:18:27;17.20;99.90
3713;DHT22;1872;51.406;6.856;2023-10-13T04:21:11;17.20;99.90
3713;DHT22;1872;51.406;6.856;2023-10-13T04:23:56;17.20;99.90
3713;DHT22;1872;51.406;6.856;2023-10-13T04:26:54;17.20;99.90
3713;DHT22;1872;51.406;6.856;2023-10-13T04:29:41;17.20;99.90
3713;DHT22;1872;51.406;6.856;2023-10-13T04:32:22;17.20;99.90
3713;DHT22;1872;51.406;6.856;2023-10-13T04:34:57;17.20;99.90
3713;DHT22;1872;51.406;6.856;2023-10-13T04:37:37;17.20;99.90
3713;DHT22;1872;51.406;6.856;2023-10-13T04:40:15;17.20;99.90
3713;DHT22;1872;51.406;6.856;2023-10-13T04:42:42;17.20;99.90
3713;DHT22;1872;51.406;6.856;2023-10-13T04:45:17;17.20;99.90
3713;DHT22;1872;51.406;6.856;2023-10-13T04:48:03;17.20;99.90
3713;DHT22;1872;51.406;6.856;2023-10-13T04:50:45;17.20;99.90
3713;DHT22;1872;51.406;6.856;2023-10-13T04:53:16;17.20;99.90
3713;DHT22;1872;51.406;6.856;2023-10-13T04:56:00;17.20;99.90
3713;DHT22;1872;51.406;6.856;2023-10-13T04:58:32;17.20;99.90
3713;DHT22;1872;51.406;6.856;2023-10-13T05:01:04;17.20;99.90
3713;DHT22;1872;51.406;6.856;2023-10-13T05:04:08;17.20;99.90
3713;DHT22;1872;51.406;6.856;2023-10-13T05:06:40;17.20;99.90
3713;DHT22;1872;51.406;6.856;2023-10-13T05:09:14;17.20;99.90
3713;DHT22;1872;51.406;6.856;2023-10-13T05:11:59;17.20;99.90
3713;DHT22;1872;51.406;6.856;2023-10-13T05:14:43;17.20;99.90
3713;DHT22;1872;51.406;6.856;2023-10-13T05:17:27;17.30;99.90
3713;DHT22;1872;51.406;6.856;2023-10-13T05:20:12;17.20;99.90
3713;DHT22;1872;51.406;6.856;2023-10-13T05:22:56;17.30;99.90
3713;DHT22;1872;51.406;6.856;2023-10-13T05:25:40;17.30;99.90
3713;DHT22;1872;51.406;6.856;2023-10-13T05:28:24;17.30;99.90
3713;DHT22;1872;51.406;6.856;2023-10-13T05:31:08;17.30;99.90
3713;DHT22;1872;51.406;6.856;2023-10-13T05:33:54;17.30;99.90
3713;DHT22;1872;51.406;6.856;2023-10-13T05:36:38;17.30;99.90
3713;DHT22;1872;51.406;6.856;2023-10-13T05:39:23;17.30;99.90
3713;DHT22;1872;51.406;6.856;2023-10-13T05:42:08;17.30;99.90
3713;DHT22;1872;51.406;6.856;2023-10-13T05:44:52;17.30;99.90
3713;DHT22;1872;51.406;6.856;2023-10-13T05:47:36;17.30;99.90
3713;DHT22;1872;51.406;6.856;2023-10-13T05:50:11;17.30;99.90
3713;DHT22;1872;51.406;6.856;2023-10-13T05:52:49;17.30;99.90
3713;DHT22;1872;51.406;6.856;2023-10-13T05:55:22;17.30;99.90
3713;DHT22;1872;51.406;6.856;2023-10-13T05:58:06;17.30;99.90
3713;DHT22;1872;51.406;6.856;2023-10-13T06:00:50;17.30;99.90
3713;DHT22;1872;51.406;6.856;2023-10-13T06:03:34;17.30;99.90
3713;DHT22;1872;51.406;6.856;2023-10-13T06:06:19;17.30;99.90
3713;DHT22;1872;51.406;6.856;2023-10-13T06:09:03;17.30;99.90
3713;DHT22;1872;51.406;6.856;2023-10-13T06:11:47;17.30;99.90
3713;DHT22;1872;51.406;6.856;2023-10-13T06:14:34;17.40;99.90
3713;DHT22;1872;51.406;6.856;2023-10-13T06:17:24;17.40;99.90
3713;DHT22;1872;51.406;6.856;2023-10-13T06:20:09;17.30;99.90
3713;DHT22;1872;51.406;6.856;2023-10-13T06:22:53;17.40;99.90
3713;DHT22;1872;51.406;6.856;2023-10-13T06:25:38;17.40;99.90
3713;DHT22;1872;51.406;6.856;2023-10-13T06:28:22;17.40;99.90
3713;DHT22;1872;51.406;6.856;2023-10-13T06:31:06;17.40;99.90
3713;DHT22;1872;51.406;6.856;2023-10-13T06:33:33;17.40;99.90
3713;DHT22;1872;51.406;6.856;2023-10-13T06:36:07;17.40;99.90
3713;DHT22;1872;51.406;6.856;2023-10-13T06:38:36;17.40;99.90
3713;DHT22;1872;51.406;6.856;2023-10-13T06:41:08;17.40;99.90
3713;DHT22;1872;51.406;6.856;2023-10-13T06:43:40;17.40;99.90
3713;DHT22;1872;51.406;6.856;2023-10-13T06:46:06;17.50;99.90
3713;DHT22;1872;51.406;6.856;2023-10-13T06:48:33;17.50;99.90
3713;DHT22;1872;51.406;6.856;2023-10-13T06:51:01;17.50;99.90
3713;DHT22;1872;51.406;6.856;2023-10-13T06:53:41;17.50;99.90
3713;DHT22;1872;51.406;6.856;2023-10-13T06:56:11;17.50;99.90
3713;DHT22;1872;51.406;6.856;2023-10-13T06:58:44;17.50;99.90
3713;DHT22;1872;51.406;6.856;2023-10-13T07:01:09;17.60;99.90
3713;DHT22;1872;51.406;6.856;2023-10-13T07:03:42;17.60;99.90
3713;DHT22;1872;51.406;6.856;2023-10-13T07:06:08;17.60;99.90
3713;DHT22;1872;51.406;6.856;2023-10-13T07:08:43;17.60;99.90
3713;DHT22;1872;51.406;6.856;2023-10-13T07:11:18;17.70;99.90
3713;DHT22;1872;51.406;6.856;2023-10-13T07:13:59;17.70;99.90
3713;DHT22;1872;51.406;6.856;2023-10-13T07:16:26;17.80;99.90
3713;DHT22;1872;51.406;6.856;2023-10-13T07:19:03;17.80;99.90
3713;DHT22;1872;51.406;6.856;2023-10-13T07:21:33;17.80;99.90
3713;DHT22;1872;51.406;6.856;2023-10-13T07:23:59;17.90;99.90
3713;DHT22;1872;51.406;6.856;2023-10-13T07:26:35;17.90;99.90
3713;DHT22;1872;51.406;6.856;2023-10-13T07:29:08;18.00;99.90
3713;DHT22;1872;51.406;6.856;2023-10-13T07:31:34;18.00;99.90
3713;DHT22;1872;51.406;6.856;2023-10-13T07:34:04;18.00;99.90
3713;DHT22;1872;51.406;6.856;2023-10-13T07:36:42;18.00;99.90
3713;DHT22;1872;51.406;6.856;2023-10-13T07:39:09;18.10;99.90
3713;DHT22;1872;51.406;6.856;2023-10-13T07:41:51;18.10;99.90
3713;DHT22;1872;51.406;6.856;2023-10-13T07:44:21;18.20;99.90
3713;DHT22;1872;51.406;6.856;2023-10-13T07:46:51;18.20;99.90
3713;DHT22;1872;51.406;6.856;2023-10-13T07:49:27;18.20;99.90
3713;DHT22;1872;51.406;6.856;2023-10-13T07:51:59;18.20;99.90
3713;DHT22;1872;51.406;6.856;2023-10-13T07:54:28;18.20;99.90
3713;DHT22;1872;51.406;6.856;2023-10-13T07:56:56;18.30;99.90
3713;DHT22;1872;51.406;6.856;2023-10-13T07:59:23;18.30;99.90
3713;DHT22;1872;51.406;6.856;2023-10-13T08:01:49;18.30;99.90
3713;DHT22;1872;51.406;6.856;2023-10-13T08:04:35;18.40;99.90
3713;DHT22;1872;51.406;6.856;2023-10-13T08:07:02;18.50;99.90
3713;DHT22;1872;51.406;6.856;2023-10-13T08:09:39;18.50;99.90
3713;DHT22;1872;51.406;6.856;2023-10-13T08:12:09;18.60;99.90
3713;DHT22;1872;51.406;6.856;2023-10-13T08:14:38;18.70;99.90
3713;DHT22;1872;51.406;6.856;2023-10-13T08:17:07;18.70;99.90
3713;DHT22;1872;51.406;6.856;2023-10-13T08:19:36;18.80;99.90
3713;DHT22;1872;51.406;6.856;2023-10-13T08:22:11;18.80;99.90
3713;DHT22;1872;51.406;6.856;2023-10-13T08:24:59;18.90;99.90
3713;DHT22;1872;51.406;6.856;2023-10-13T08:27:45;19.00;99.90
3713;DHT22;1872;51.406;6.856;2023-10-13T08:30:16;19.10;99.90
3713;DHT22;1872;51.406;6.856;2023-10-13T08:32:55;19.10;99.90
3713;DHT22;1872;51.406;6.856;2023-10-13T08:35:22;19.20;99.90
3713;DHT22;1872;51.406;6.856;2023-10-13T08:37:49;19.20;99.90
3713;DHT22;1872;51.406;6.856;2023-10-13T08:40:35;19.30;99.90
3713;DHT22;1872;51.406;6.856;2023-10-13T08:43:19;19.40;99.90
3713;DHT22;1872;51.406;6.856;2023-10-13T08:45:45;19.40;99.90
3713;DHT22;1872;51.406;6.856;2023-10-13T08:48:12;19.40;99.90
3713;DHT22;1872;51.406;6.856;2023-10-13T08:56:03;19.50;99.90
3713;DHT22;1872;51.406;6.856;2023-10-13T08:59:00;19.50;99.90
3713;DHT22;1872;51.406;6.856;2023-10-13T09:01:37;19.50;99.90
3713;DHT22;1872;51.406;6.856;2023-10-13T09:04:06;19.50;99.90
3713;DHT22;1872;51.406;6.856;2023-10-13T09:06:45;19.50;99.90
3713;DHT22;1872;51.406;6.856;2023-10-13T09:09:23;19.60;99.90
3713;DHT22;1872;51.406;6.856;2023-10-13T09:11:55;19.60;99.90
3713;DHT22;1872;51.406;6.856;2023-10-13T09:14:37;19.70;99.90
3713;DHT22;1872;51.406;6.856;2023-10-13T09:17:12;19.80;99.90
3713;DHT22;1872;51.406;6.856;2023-10-13T09:19:56;19.80;99.90
3713;DHT22;1872;51.406;6.856;2023-10-13T09:22:26;19.90;99.90
3713;DHT22;1872;51.406;6.856;2023-10-13T09:25:02;19.90;99.90
3713;DHT22;1872;51.406;6.856;2023-10-13T09:27:32;19.90;99.90
3713;DHT22;1872;51.406;6.856;2023-10-13T09:30:03;20.00;99.90
3713;DHT22;1872;51.406;6.856;2023-10-13T09:32:36;20.00;99.90
3713;DHT22;1872;51.406;6.856;2023-10-13T09:35:17;20.10;99.90
3713;DHT22;1872;51.406;6.856;2023-10-13T09:37:44;20.10;99.90
3713;DHT22;1872;51.406;6.856;2023-10-13T09:40:15;20.20;99.90
3713;DHT22;1872;51.406;6.856;2023-10-13T09:42:57;20.20;99.90
3713;DHT22;1872;51.406;6.856;2023-10-13T09:45:33;20.30;99.90
3713;DHT22;1872;51.406;6.856;2023-10-13T09:48:09;20.30;99.90
3713;DHT22;1872;51.406;6.856;2023-10-13T09:50:44;20.40;99.90
3713;DHT22;1872;51.406;6.856;2023-10-13T09:53:11;20.40;99.90
3713;DHT22;1872;51.406;6.856;2023-10-13T09:55:45;20.40;99.90
3713;DHT22;1872;51.406;6.856;2023-10-13T09:58:13;20.40;99.90
3713;DHT22;1872;51.406;6.856;2023-10-13T10:00:52;20.40;99.90
3713;DHT22;1872;51.406;6.856;2023-10-13T10:03:48;20.50;99.90
3713;DHT22;1872;51.406;6.856;2023-10-13T10:06:32;20.50;99.90
3713;DHT22;1872;51.406;6.856;2023-10-13T10:09:08;20.60;99.90
3713;DHT22;1872;51.406;6.856;2023-10-13T10:11:59;20.60;99.90
3713;DHT22;1872;51.406;6.856;2023-10-13T10:17:39;20.70;99.90
3713;DHT22;1872;51.406;6.856;2023-10-13T10:20:05;20.70;99.90
3713;DHT22;1872;51.406;6.856;2023-10-13T10:22:40;20.70;99.90
3713;DHT22;1872;51.406;6.856;2023-10-13T10:25:12;20.70;99.90
3713;DHT22;1872;51.406;6.856;2023-10-13T10:27:59;20.70;99.90
3713;DHT22;1872;51.406;6.856;2023-10-13T10:30:29;20.70;99.90
3713;DHT22;1872;51.406;6.856;2023-10-13T10:32:58;20.70;99.90
3713;DHT22;1872;51.406;6.856;2023-10-13T10:35:25;20.80;99.90
3713;DHT22;1872;51.406;6.856;2023-10-13T10:38:19;20.80;99.90
3713;DHT22;1872;51.406;6.856;2023-10-13T10:41:05;20.90;99.90
3713;DHT22;1872;51.406;6.856;2023-10-13T10:46:18;20.90;99.90
3713;DHT22;1872;51.406;6.856;2023-10-13T10:48:44;20.90;99.90
3713;DHT22;1872;51.406;6.856;2023-10-13T10:51:14;20.90;99.90
3713;DHT22;1872;51.406;6.856;2023-10-13T10:53:52;21.00;99.90
3713;DHT22;1872;51.406;6.856;2023-10-13T10:56:27;21.00;99.90
3713;DHT22;1872;51.406;6.856;2023-10-13T10:59:03;21.00;99.90
3713;DHT22;1872;51.406;6.856;2023-10-13T11:01:30;21.00;99.90
3713;DHT22;1872;51.406;6.856;2023-10-13T11:04:00;21.00;99.90
3713;DHT22;1872;51.406;6.856;2023-10-13T11:06:56;21.00;99.90
3713;DHT22;1872;51.406;6.856;2023-10-13T11:09:27;21.00;99.90
3713;DHT22;1872;51.406;6.856;2023-10-13T11:12:12;21.10;99.90
3713;DHT22;1872;51.406;6.856;2023-10-13T11:14:45;21.10;99.90
3713;DHT22;1872;51.406;6.856;2023-10-13T11:17:21;21.10;99.90
3713;DHT22;1872;51.406;6.856;2023-10-13T11:20:12;21.20;99.90
3713;DHT22;1872;51.406;6.856;2023-10-13T11:22:45;21.20;99.90
3713;DHT22;1872;51.406;6.856;2023-10-13T11:25:21;21.20;99.90
3713;DHT22;1872;51.406;6.856;2023-10-13T11:27:48;21.20;99.90
3713;DHT22;1872;51.406;6.856;2023-10-13T11:30:16;21.10;99.90
3713;DHT22;1872;51.406;6.856;2023-10-13T11:32:56;21.10;99.90
3713;DHT22;1872;51.406;6.856;2023-10-13T11:35:23;21.10;99.90
3713;DHT22;1872;51.406;6.856;2023-10-13T11:37:52;21.10;99.90
3713;DHT22;1872;51.406;6.856;2023-10-13T11:40:37;21.10;99.90
3713;DHT22;1872;51.406;6.856;2023-10-13T11:43:15;21.10;99.90
3713;DHT22;1872;51.406;6.856;2023-10-13T11:45:47;21.10;99.90
3713;DHT22;1872;51.406;6.856;2023-10-13T11:48:43;21.10;99.90
3713;DHT22;1872;51.406;6.856;2023-10-13T11:51:28;21.20;99.90
3713;DHT22;1872;51.406;6.856;2023-10-13T11:53:58;21.30;99.90
3713;DHT22;1872;51.406;6.856;2023-10-13T11:56:24;21.40;99.90
3713;DHT22;1872;51.406;6.856;2023-10-13T11:58:50;21.40;99.90
3713;DHT22;1872;51.406;6.856;2023-10-13T12:01:17;21.40;99.90
3713;DHT22;1872;51.406;6.856;2023-10-13T12:03:50;21.50;99.90
3713;DHT22;1872;51.406;6.856;2023-10-13T12:06:35;21.50;99.90
3713;DHT22;1872;51.406;6.856;2023-10-13T12:09:19;21.60;99.90
3713;DHT22;1872;51.406;6.856;2023-10-13T12:11:45;21.60;99.90
3713;DHT22;1872;51.406;6.856;2023-10-13T12:14:15;21.70;99.90
3713;DHT22;1872;51.406;6.856;2023-10-13T12:16:50;21.70;99.90
3713;DHT22;1872;51.406;6.856;2023-10-13T12:19:20;21.80;99.90
3713;DHT22;1872;51.406;6.856;2023-10-13T12:21:53;21.80;99.90
3713;DHT22;1872;51.406;6.856;2023-10-13T12:24:28;21.90;99.90
3713;DHT22;1872;51.406;6.856;2023-10-13T12:27:03;21.90;99.90
3713;DHT22;1872;51.406;6.856;2023-10-13T12:29:45;21.90;99.90
3713;DHT22;1872;51.406;6.856;2023-10-13T12:32:12;21.90;99.90
3713;DHT22;1872;51.406;6.856;2023-10-13T12:34:39;21.90;99.90
3713;DHT22;1872;51.406;6.856;2023-10-13T12:37:41;21.90;99.90
3713;DHT22;1872;51.406;6.856;2023-10-13T12:40:13;21.90;99.90
3713;DHT22;1872;51.406;6.856;2023-10-13T12:42:57;22.00;99.90
3713;DHT22;1872;51.406;6.856;2023-10-13T12:45:46;22.00;99.90
3713;DHT22;1872;51.406;6.856;2023-10-13T12:48:31;21.90;99.90
3713;DHT22;1872;51.406;6.856;2023-10-13T12:51:16;21.90;99.90
3713;DHT22;1872;51.406;6.856;2023-10-13T12:53:57;22.00;99.90
3713;DHT22;1872;51.406;6.856;2023-10-13T12:56:30;22.00;99.90
3713;DHT22;1872;51.406;6.856;2023-10-13T12:58:56;22.00;99.90
3713;DHT22;1872;51.406;6.856;2023-10-13T13:01:24;22.00;99.90
3713;DHT22;1872;51.406;6.856;2023-10-13T13:03:51;22.00;99.90
3713;DHT22;1872;51.406;6.856;2023-10-13T13:06:26;22.00;99.90
3713;DHT22;1872;51.406;6.856;2023-10-13T13:08:59;22.00;99.90
3713;DHT22;1872;51.406;6.856;2023-10-13T13:11:28;22.00;99.90
3713;DHT22;1872;51.406;6.856;2023-10-13T13:13:56;22.00;99.90
3713;DHT22;1872;51.406;6.856;2023-10-13T13:16:22;22.00;99.90
3713;DHT22;1872;51.406;6.856;2023-10-13T13:18:55;22.00;99.90
3713;DHT22;1872;51.406;6.856;2023-10-13T13:21:21;22.00;99.90
3713;DHT22;1872;51.406;6.856;2023-10-13T13:23:50;22.00;99.90
3713;DHT22;1872;51.406;6.856;2023-10-13T13:26:16;22.00;99.90
3713;DHT22;1872;51.406;6.856;2023-10-13T13:28:43;22.00;99.90
3713;DHT22;1872;51.406;6.856;2023-10-13T13:31:09;22.00;99.90
3713;DHT22;1872;51.406;6.856;2023-10-13T13:33:38;22.00;99.90
3713;DHT22;1872;51.406;6.856;2023-10-13T13:36:07;22.00;99.90
3713;DHT22;1872;51.406;6.856;2023-10-13T13:38:33;22.00;99.90
3713;DHT22;1872;51.406;6.856;2023-10-13T13:41:01;22.00;99.90
3713;DHT22;1872;51.406;6.856;2023-10-13T13:43:28;21.90;99.90
3713;DHT22;1872;51.406;6.856;2023-10-13T13:46:03;22.00;99.90
3713;DHT22;1872;51.406;6.856;2023-10-13T13:48:29;22.00;99.90
3713;DHT22;1872;51.406;6.856;2023-10-13T13:50:56;22.00;99.90
3713;DHT22;1872;51.406;6.856;2023-10-13T13:53:30;21.90;99.90
3713;DHT22;1872;51.406;6.856;2023-10-13T13:56:06;21.90;99.90
3713;DHT22;1872;51.406;6.856;2023-10-13T13:58:32;21.90;99.90
3713;DHT22;1872;51.406;6.856;2023-10-13T14:01:02;21.90;99.90
3713;DHT22;1872;51.406;6.856;2023-10-13T14:03:44;21.90;99.90
3713;DHT22;1872;51.406;6.856;2023-10-13T14:06:21;21.90;99.90
3713;DHT22;1872;51.406;6.856;2023-10-13T14:08:49;21.90;99.90
3713;DHT22;1872;51.406;6.856;2023-10-13T14:11:17;21.90;99.90
3713;DHT22;1872;51.406;6.856;2023-10-13T14:14:02;21.90;99.90
3713;DHT22;1872;51.406;6.856;2023-10-13T14:16:30;21.90;99.90
3713;DHT22;1872;51.406;6.856;2023-10-13T14:18:59;21.90;99.90
3713;DHT22;1872;51.406;6.856;2023-10-13T14:21:27;21.90;99.90
3713;DHT22;1872;51.406;6.856;2023-10-13T14:23:53;21.90;99.90
3713;DHT22;1872;51.406;6.856;2023-10-13T14:26:20;21.80;99.90
3713;DHT22;1872;51.406;6.856;2023-10-13T14:28:49;21.80;99.90
3713;DHT22;1872;51.406;6.856;2023-10-13T14:31:28;21.80;99.90
3713;DHT22;1872;51.406;6.856;2023-10-13T14:33:54;21.70;99.90
3713;DHT22;1872;51.406;6.856;2023-10-13T14:36:19;21.70;99.90
3713;DHT22;1872;51.406;6.856;2023-10-13T14:38:48;21.70;99.90
3713;DHT22;1872;51.406;6.856;2023-10-13T14:41:18;21.70;99.90
3713;DHT22;1872;51.406;6.856;2023-10-13T14:43:45;21.60;99.90
3713;DHT22;1872;51.406;6.856;2023-10-13T14:46:17;21.60;99.90
3713;DHT22;1872;51.406;6.856;2023-10-13T14:48:46;21.60;99.90
3713;DHT22;1872;51.406;6.856;2023-10-13T14:51:14;21.50;99.90
3713;DHT22;1872;51.406;6.856;2023-10-13T14:53:51;21.50;99.90
3713;DHT22;1872;51.406;6.856;2023-10-13T14:56:22;21.50;99.90
3713;DHT22;1872;51.406;6.856;2023-10-13T14:58:52;21.40;99.90
3713;DHT22;1872;51.406;6.856;2023-10-13T15:01:22;21.40;99.90
3713;DHT22;1872;51.406;6.856;2023-10-13T15:03:53;21.40;99.90
3713;DHT22;1872;51.406;6.856;2023-10-13T15:06:24;21.40;99.90
3713;DHT22;1872;51.406;6.856;2023-10-13T15:08:51;21.30;99.90
3713;DHT22;1872;51.406;6.856;2023-10-13T15:11:19;21.30;99.90
3713;DHT22;1872;51.406;6.856;2023-10-13T15:13:45;21.30;99.90
3713;DHT22;1872;51.406;6.856;2023-10-13T15:16:24;21.30;99.90
3713;DHT22;1872;51.406;6.856;2023-10-13T15:18:52;21.30;99.90
3713;DHT22;1872;51.406;6.856;2023-10-13T15:21:21;21.30;99.90
3713;DHT22;1872;51.406;6.856;2023-10-13T15:23:48;21.20;99.90
3713;DHT22;1872;51.406;6.856;2023-10-13T15:26:19;21.20;99.90
3713;DHT22;1872;51.406;6.856;2023-10-13T15:28:50;21.20;99.90
3713;DHT22;1872;51.406;6.856;2023-10-13T15:31:19;21.20;99.90
3713;DHT22;1872;51.406;6.856;2023-10-13T15:33:54;21.20;99.90
3713;DHT22;1872;51.406;6.856;2023-10-13T15:36:23;21.20;99.90
3713;DHT22;1872;51.406;6.856;2023-10-13T15:38:53;21.10;99.90
3713;DHT22;1872;51.406;6.856;2023-10-13T15:41:27;21.10;99.90
3713;DHT22;1872;51.406;6.856;2023-10-13T15:43:53;21.20;99.90
3713;DHT22;1872;51.406;6.856;2023-10-13T15:46:21;21.10;99.90
3713;DHT22;1872;51.406;6.856;2023-10-13T15:48:58;21.10;99.90
3713;DHT22;1872;51.406;6.856;2023-10-13T15:51:25;21.10;99.90
3713;DHT22;1872;51.406;6.856;2023-10-13T15:53:50;21.10;99.90
3713;DHT22;1872;51.406;6.856;2023-10-13T15:56:16;21.10;99.90
3713;DHT22;1872;51.406;6.856;2023-10-13T15:58:43;21.10;99.90
3713;DHT22;1872;51.406;6.856;2023-10-13T16:01:09;21.10;99.90
3713;DHT22;1872;51.406;6.856;2023-10-13T16:03:42;21.10;99.90
3713;DHT22;1872;51.406;6.856;2023-10-13T16:06:18;21.10;99.90
3713;DHT22;1872;51.406;6.856;2023-10-13T16:08:44;21.10;99.90
3713;DHT22;1872;51.406;6.856;2023-10-13T16:11:14;21.00;99.90
3713;DHT22;1872;51.406;6.856;2023-10-13T16:13:47;21.00;99.90
3713;DHT22;1872;51.406;6.856;2023-10-13T16:16:20;21.00;99.90
3713;DHT22;1872;51.406;6.856;2023-10-13T16:18:53;21.00;99.90
3713;DHT22;1872;51.406;6.856;2023-10-13T16:21:20;21.00;99.90
3713;DHT22;1872;51.406;6.856;2023-10-13T16:23:47;21.00;99.90
3713;DHT22;1872;51.406;6.856;2023-10-13T16:26:17;21.00;99.90
3713;DHT22;1872;51.406;6.856;2023-10-13T16:28:49;21.00;99.90
3713;DHT22;1872;51.406;6.856;2023-10-13T16:31:19;20.90;99.90
3713;DHT22;1872;51.406;6.856;2023-10-13T16:33:48;20.90;99.90
3713;DHT22;1872;51.406;6.856;2023-10-13T16:36:14;20.90;99.90
3713;DHT22;1872;51.406;6.856;2023-10-13T16:38:40;20.90;99.90
3713;DHT22;1872;51.406;6.856;2023-10-13T16:41:06;20.80;99.90
3713;DHT22;1872;51.406;6.856;2023-10-13T16:43:35;20.90;99.90
3713;DHT22;1872;51.406;6.856;2023-10-13T16:46:19;20.80;99.90
3713;DHT22;1872;51.406;6.856;2023-10-13T16:48:48;20.80;99.90
3713;DHT22;1872;51.406;6.856;2023-10-13T16:51:15;20.80;99.90
3713;DHT22;1872;51.406;6.856;2023-10-13T16:53:41;20.70;99.90
3713;DHT22;1872;51.406;6.856;2023-10-13T16:56:16;20.70;99.90
3713;DHT22;1872;51.406;6.856;2023-10-13T16:58:43;20.80;99.90
3713;DHT22;1872;51.406;6.856;2023-10-13T17:01:12;20.70;99.90